Time;durP1;ratioP1;P1;durP2;ratioP2;P2;SDS_P1;SDS_P2;PMS_P1;PMS_P2;Temp;Humidity;BMP_temperature;BMP_pressure;BME280_temperature;BME280_humidity;BME280_pressure;Samples;Min_cycle;Max_cycle;Signal;HPM_P1;HPM_P2
2022/11/17 00:06:11;;;;;;;13.30;6.18;;;7.50;99.90;;;;;;21179589;28;20019;-80
2022/11/17 00:16:13;;;;;;;19.60;7.45;;;7.60;99.90;;;;;;21178096;28;20152;-80
2022/11/17 00:26:25;;;;;;;16.25;7.40;;;7.50;99.90;;;;;;21178984;28;20027;-80
2022/11/17 00:36:26;;;;;;;18.02;8.65;;;7.50;99.90;;;;;;21176290;28;20028;-80
2022/11/17 00:46:26;;;;;;;15.50;8.47;;;7.50;99.90;;;;;;21179555;28;20451;-79
2022/11/17 00:56:28;;;;;;;17.38;9.75;;;7.50;99.90;;;;;;21181250;28;20116;-80
2022/11/17 01:06:33;;;;;;;;;;;7.50;99.90;;;;;;21188636;28;20035;-79
2022/11/17 01:16:33;;;;;;;20.02;11.02;;;7.30;99.90;;;;;;21189305;28;19945;-80
2022/11/17 01:26:36;;;;;;;18.03;10.17;;;7.30;99.90;;;;;;21150373;27;20395;-80
2022/11/17 01:46:58;;;;;;;28.50;12.33;;;7.40;99.90;;;;;;21102094;28;20084;-80
2022/11/17 01:57:03;;;;;;;22.23;11.97;;;7.50;99.90;;;;;;21107978;28;20024;-80
2022/11/17 02:07:11;;;;;;;18.15;9.65;;;7.60;99.90;;;;;;21103223;28;20032;-79
2022/11/17 02:17:12;;;;;;;17.70;8.18;;;7.80;99.90;;;;;;21107484;28;20040;-78
2022/11/17 02:27:40;;;;;;;10.10;6.67;;;7.90;99.90;;;;;;21096148;28;20491;-79
2022/11/17 02:37:50;;;;;;;13.10;7.35;;;8.00;99.90;;;;;;21094940;28;20577;-80
2022/11/17 02:47:54;;;;;;;12.45;7.35;;;8.00;99.90;;;;;;21097597;28;20108;-80
2022/11/17 02:57:55;;;;;;;13.95;7.03;;;8.00;99.90;;;;;;21097252;28;20036;-79
2022/11/17 03:08:11;;;;;;;21.57;8.10;;;7.90;99.90;;;;;;21131119;28;20038;-78
2022/11/17 03:18:14;;;;;;;20.17;9.13;;;7.90;99.90;;;;;;21177488;28;20042;-80
2022/11/17 03:28:17;;;;;;;17.48;9.20;;;7.80;99.90;;;;;;21176508;28;20027;-81
2022/11/17 03:38:22;;;;;;;15.45;10.18;;;7.80;99.90;;;;;;21178486;28;20039;-80
2022/11/17 03:48:47;;;;;;;15.60;9.55;;;7.90;99.90;;;;;;21183605;28;20028;-81
2022/11/17 03:59:04;;;;;;;14.25;8.68;;;7.90;99.90;;;;;;21178097;28;20050;-79
2022/11/17 04:09:05;;;;;;;12.75;6.85;;;8.00;99.90;;;;;;21179619;28;20040;-80
2022/11/17 04:19:05;;;;;;;14.67;7.50;;;8.10;99.90;;;;;;21183541;28;20057;-79
2022/11/17 04:29:07;;;;;;;11.67;7.73;;;8.10;99.90;;;;;;21163995;28;20111;-76
2022/11/17 04:39:08;;;;;;;13.07;7.30;;;8.00;99.90;;;;;;21127769;28;20031;-78
2022/11/17 04:49:09;;;;;;;;;;;8.10;99.90;;;;;;21117871;28;20027;-78
2022/11/17 04:59:09;;;;;;;13.75;6.28;;;8.10;99.90;;;;;;21166220;28;20378;-77
2022/11/17 05:09:14;;;;;;;13.50;5.70;;;8.10;99.90;;;;;;21167998;28;20032;-79
2022/11/17 05:19:18;;;;;;;9.15;6.05;;;8.20;99.90;;;;;;21166156;28;20032;-78
2022/11/17 05:29:23;;;;;;;15.02;8.50;;;8.20;99.90;;;;;;21161588;28;20028;-79
2022/11/17 05:39:24;;;;;;;13.60;7.95;;;8.10;99.90;;;;;;21114754;28;20039;-78
2022/11/17 05:49:24;;;;;;;12.43;8.07;;;8.10;99.90;;;;;;21104641;28;20449;-77
2022/11/17 05:59:34;;;;;;;10.63;6.87;;;8.10;99.90;;;;;;21125805;28;20080;-79
2022/11/17 06:09:39;;;;;;;7.75;4.30;;;8.20;99.90;;;;;;21149101;28;20020;-78
2022/11/17 06:19:43;;;;;;;12.25;5.85;;;8.40;99.90;;;;;;21175713;28;20535;-78
2022/11/17 06:29:48;;;;;;;9.90;5.30;;;8.30;99.90;;;;;;21157562;28;20034;-79
2022/11/17 06:39:48;;;;;;;10.77;3.83;;;8.30;99.90;;;;;;21138459;28;20490;-78
2022/11/17 06:49:49;;;;;;;7.57;3.67;;;8.30;99.90;;;;;;21131123;28;20028;-77
2022/11/17 06:59:51;;;;;;;7.60;3.80;;;7.70;99.90;;;;;;21130642;28;20023;-77
2022/11/17 07:09:52;;;;;;;10.95;4.85;;;8.30;99.90;;;;;;21139548;28;20033;-79
2022/11/17 07:19:53;;;;;;;9.43;4.67;;;9.20;99.90;;;;;;21139443;28;20080;-78
2022/11/17 07:29:54;;;;;;;6.60;3.75;;;9.80;99.90;;;;;;21138870;28;20020;-79
2022/11/17 07:39:55;;;;;;;9.67;3.30;;;10.50;99.90;;;;;;21119455;28;20026;-79
2022/11/17 07:49:56;;;;;;;5.03;2.73;;;11.00;99.90;;;;;;21101429;28;20060;-80
2022/11/17 07:59:57;;;;;;;6.97;2.43;;;10.80;99.90;;;;;;21096769;28;20046;-79
2022/11/17 08:09:57;;;;;;;9.17;4.57;;;10.70;99.90;;;;;;21096474;28;20028;-79
2022/11/17 08:19:58;;;;;;;9.23;4.63;;;12.40;99.90;;;;;;21091861;28;20127;-78
2022/11/17 08:29:59;;;;;;;4.77;3.20;;;11.90;99.90;;;;;;21093550;28;20035;-79
2022/11/17 08:40:00;;;;;;;7.03;2.43;;;11.60;99.90;;;;;;21094171;28;20024;-78
2022/11/17 08:50:01;;;;;;;2.20;0.83;;;12.50;99.90;;;;;;21090604;28;20040;-79
2022/11/17 09:00:02;;;;;;;2.50;0.60;;;13.30;99.90;;;;;;21133764;28;20038;-78
2022/11/17 09:10:03;;;;;;;;;;;13.40;99.90;;;;;;21121834;27;20422;-77
2022/11/17 09:20:05;;;;;;;6.70;0.80;;;12.60;99.90;;;;;;21217415;27;19911;-78
2022/11/17 09:30:09;;;;;;;5.35;0.95;;;13.30;99.90;;;;;;21186662;27;20035;-77
2022/11/17 09:40:17;;;;;;;7.40;1.05;;;12.60;99.90;;;;;;21185674;28;20462;-77
2022/11/17 09:50:23;;;;;;;6.90;0.95;;;13.60;99.90;;;;;;21188043;28;20051;-78
2022/11/17 10:00:24;;;;;;;6.93;1.75;;;13.10;99.90;;;;;;21188128;28;20098;-78
2022/11/17 10:10:41;;;;;;;7.17;1.30;;;12.90;99.90;;;;;;21184766;28;20055;-78
2022/11/17 10:20:43;;;;;;;3.47;1.15;;;12.60;99.90;;;;;;21180434;28;20285;-77
2022/11/17 10:30:59;;;;;;;7.38;1.10;;;12.60;99.90;;;;;;21183212;27;20062;-77
2022/11/17 10:41:02;;;;;;;8.20;1.88;;;12.80;99.90;;;;;;21184156;28;20039;-77
2022/11/17 10:51:09;;;;;;;8.32;1.40;;;13.20;99.90;;;;;;21183217;28;20043;-78
2022/11/17 11:01:10;;;;;;;4.85;1.02;;;13.40;99.90;;;;;;21165271;28;20252;-78
2022/11/17 11:11:31;;;;;;;8.20;1.33;;;13.50;99.90;;;;;;21184838;28;20076;-78
2022/11/17 11:22:14;;;;;;;6.45;2.05;;;14.40;99.90;;;;;;21183803;28;20031;-78
2022/11/17 11:32:24;;;;;;;5.55;1.90;;;14.30;99.90;;;;;;21167273;27;20043;-79
2022/11/17 11:42:47;;;;;;;11.73;1.88;;;14.30;99.90;;;;;;21163495;28;20079;-78
2022/11/17 11:52:58;;;;;;;6.22;1.70;;;14.80;99.90;;;;;;21181772;28;20031;-78
2022/11/17 12:03:17;;;;;;;11.15;1.80;;;14.70;99.90;;;;;;21180857;28;20039;-78
2022/11/17 12:13:20;;;;;;;8.13;1.27;;;14.40;99.90;;;;;;21179219;28;20028;-78
2022/11/17 12:23:56;;;;;;;5.68;1.50;;;14.40;99.90;;;;;;21177605;28;20393;-78
2022/11/17 12:33:59;;;;;;;11.60;1.65;;;15.40;99.90;;;;;;21173838;28;20027;-78
2022/11/17 12:44:32;;;;;;;10.55;1.80;;;14.20;99.90;;;;;;21169331;28;20055;-78
2022/11/17 12:54:46;;;;;;;5.97;1.20;;;13.90;99.90;;;;;;21174737;28;20035;-78
2022/11/17 13:04:53;;;;;;;6.07;1.50;;;14.10;99.90;;;;;;21170209;28;20039;-78
2022/11/17 13:14:56;;;;;;;6.60;1.15;;;14.10;99.90;;;;;;21169478;28;20031;-77
2022/11/17 13:25:11;;;;;;;5.03;0.85;;;14.10;99.90;;;;;;21164364;28;20490;-78
2022/11/17 13:35:40;;;;;;;2.20;0.40;;;14.10;99.90;;;;;;21168092;28;20037;-78
2022/11/17 13:45:42;;;;;;;2.63;0.52;;;14.20;99.90;;;;;;21168930;28;20375;-78
2022/11/17 13:55:44;;;;;;;;;;;13.90;99.90;;;;;;21171237;28;20538;-77
2022/11/17 14:05:55;;;;;;;1.50;0.53;;;13.70;99.90;;;;;;21166299;28;19911;-77
2022/11/17 14:15:58;;;;;;;2.33;0.45;;;13.70;99.90;;;;;;21179509;28;20119;-77
2022/11/17 14:25:59;;;;;;;1.77;0.50;;;13.40;99.90;;;;;;21176497;28;20492;-78
2022/11/17 14:36:00;;;;;;;3.97;0.33;;;13.50;99.90;;;;;;21182040;28;20080;-78
2022/11/17 14:46:01;;;;;;;1.63;0.40;;;14.10;99.90;;;;;;21177687;28;20397;-78
2022/11/17 14:56:07;;;;;;;1.10;0.40;;;13.90;99.90;;;;;;21177640;28;20137;-78
2022/11/17 15:06:10;;;;;;;1.17;0.20;;;14.20;99.90;;;;;;21184459;28;20024;-78
2022/11/17 15:16:11;;;;;;;2.25;0.40;;;14.00;99.90;;;;;;21182853;28;20038;-78
2022/11/17 15:26:15;;;;;;;2.90;0.50;;;13.90;99.90;;;;;;21176519;28;20035;-80
2022/11/17 15:36:18;;;;;;;1.63;0.60;;;13.30;99.90;;;;;;21174546;28;20497;-80
2022/11/17 15:46:19;;;;;;;1.73;1.30;;;12.70;99.90;;;;;;21170307;28;20070;-80
2022/11/17 15:56:23;;;;;;;20.40;6.57;;;11.50;99.90;;;;;;21143806;28;20043;-78
2022/11/17 16:06:24;;;;;;;19.15;6.47;;;10.60;99.90;;;;;;21155641;27;20036;-80
2022/11/17 16:16:27;;;;;;;30.13;11.87;;;10.80;99.90;;;;;;21165849;28;20038;-80
2022/11/17 16:26:29;;;;;;;38.95;15.00;;;10.60;99.90;;;;;;21178424;28;20047;-80
2022/11/17 16:36:33;;;;;;;127.65;56.00;;;9.70;99.90;;;;;;21176516;28;20027;-78
2022/11/17 16:46:34;;;;;;;15.35;8.02;;;9.70;99.90;;;;;;21127228;28;20031;-77
2022/11/17 16:56:35;;;;;;;7.00;2.77;;;9.30;99.90;;;;;;21147524;28;20108;-79
2022/11/17 17:06:42;;;;;;;11.83;3.47;;;9.60;99.90;;;;;;21171164;28;20059;-83
2022/11/17 17:16:43;;;;;;;4.25;1.13;;;9.90;99.90;;;;;;21172596;28;20501;-81
2022/11/17 17:26:43;;;;;;;1.40;0.70;;;10.20;99.90;;;;;;21159569;28;20035;-82
2022/11/17 17:36:44;;;;;;;1.40;0.73;;;10.10;99.90;;;;;;21178845;28;20416;-80
2022/11/17 17:46:46;;;;;;;5.43;1.40;;;10.10;99.90;;;;;;21181964;28;20504;-80
2022/11/17 17:56:47;;;;;;;3.35;0.88;;;9.80;99.90;;;;;;21182444;28;20080;-81
2022/11/17 18:06:47;;;;;;;2.87;1.27;;;9.70;99.90;;;;;;21136849;28;20032;-80
2022/11/17 18:16:49;;;;;;;5.33;1.50;;;9.50;99.90;;;;;;21084359;28;20506;-82
2022/11/17 18:26:50;;;;;;;3.47;0.95;;;9.60;99.90;;;;;;21161273;28;20077;-81
2022/11/17 18:36:54;;;;;;;0.90;0.50;;;9.40;99.90;;;;;;21184853;28;20028;-80
2022/11/17 18:46:55;;;;;;;4.00;2.20;;;9.40;99.90;;;;;;21182151;28;20032;-83
2022/11/17 18:56:56;;;;;;;3.90;2.00;;;9.40;99.90;;;;;;21183390;28;20058;-82
2022/11/17 19:06:56;;;;;;;6.63;2.23;;;9.30;99.90;;;;;;21128713;28;20028;-81
2022/11/17 19:16:57;;;;;;;5.87;1.30;;;9.10;99.90;;;;;;21147090;28;20027;-81
2022/11/17 19:26:58;;;;;;;3.03;1.47;;;9.00;99.90;;;;;;21127661;28;20119;-82
2022/11/17 19:36:59;;;;;;;8.90;1.47;;;8.90;99.90;;;;;;21142473;28;20405;-81
2022/11/17 19:46:59;;;;;;;5.90;0.67;;;8.90;99.90;;;;;;21127611;28;20032;-81
2022/11/17 19:57:00;;;;;;;0.80;0.60;;;8.90;99.90;;;;;;21119725;28;20037;-83
2022/11/17 20:07:01;;;;;;;1.00;0.57;;;8.70;99.90;;;;;;21125014;28;20050;-81
2022/11/17 20:17:02;;;;;;;0.57;0.57;;;8.50;99.90;;;;;;21118701;28;20050;-81
2022/11/17 20:27:02;;;;;;;0.90;0.50;;;8.50;99.90;;;;;;21124134;28;20023;-82
2022/11/17 20:37:03;;;;;;;1.50;0.70;;;8.60;99.90;;;;;;21136412;28;20398;-81
2022/11/17 20:47:04;;;;;;;5.43;1.93;;;8.50;99.90;;;;;;21137177;28;20111;-81
2022/11/17 20:57:05;;;;;;;1.67;1.03;;;8.30;99.90;;;;;;21112139;28;20043;-80
2022/11/17 21:07:06;;;;;;;2.30;1.20;;;8.30;99.90;;;;;;21119053;28;20278;-82
2022/11/17 21:18:22;;;;;;;1.17;0.77;;;8.40;99.90;;;;;;21138524;28;20040;-82
2022/11/17 21:27:27;;;;;;;3.22;1.17;;;8.30;99.90;;;;;;21129521;28;20028;-81
2022/11/17 21:37:28;;;;;;;3.35;1.48;;;8.20;99.90;;;;;;21128023;28;20083;-81
2022/11/17 21:47:29;;;;;;;1.90;1.40;;;8.20;99.90;;;;;;21137187;28;20031;-81
2022/11/17 21:57:30;;;;;;;4.83;0.90;;;8.40;99.90;;;;;;21144221;28;20032;-82
2022/11/17 22:07:30;;;;;;;2.37;0.80;;;8.20;99.90;;;;;;21134246;28;20498;-82
2022/11/17 22:17:31;;;;;;;5.13;1.38;;;8.20;99.90;;;;;;21159955;28;20067;-82
2022/11/17 22:27:32;;;;;;;1.50;1.07;;;8.40;99.90;;;;;;21137830;28;20125;-82
2022/11/17 22:37:33;;;;;;;2.83;1.80;;;8.40;99.90;;;;;;21132670;28;20042;-82
2022/11/17 22:47:34;;;;;;;3.30;1.00;;;8.40;99.90;;;;;;21120582;28;20544;-82
2022/11/17 22:57:35;;;;;;;4.27;0.97;;;8.20;99.90;;;;;;21129083;28;20043;-80
2022/11/17 23:07:35;;;;;;;1.43;0.53;;;8.10;99.90;;;;;;21124314;28;20510;-81
2022/11/17 23:17:36;;;;;;;1.30;0.80;;;8.30;99.90;;;;;;21124890;28;20031;-81
2022/11/17 23:27:37;;;;;;;1.13;0.53;;;8.40;99.90;;;;;;21123939;28;20031;-82
2022/11/17 23:37:38;;;;;;;2.83;0.80;;;8.30;99.90;;;;;;21120822;28;20032;-81
2022/11/17 23:47:38;;;;;;;2.60;1.40;;;8.20;99.90;;;;;;21075899;28;20036;-81
2022/11/17 23:57:39;;;;;;;3.95;2.30;;;8.20;99.90;;;;;;21078946;28;20107;-81
